sensor_id;sensor_type;location;lat;lon;timestamp;temperature;humidity
64718;DHT22;51148;46.070;14.492;2022-07-10T00:00:30;24.90;51.80
64718;DHT22;51148;46.070;14.492;2022-07-10T00:02:56;24.90;51.80
64718;DHT22;51148;46.070;14.492;2022-07-10T00:05:22;24.90;51.80
64718;DHT22;51148;46.070;14.492;2022-07-10T00:07:48;24.90;51.80
64718;DHT22;51148;46.070;14.492;2022-07-10T00:10:14;24.80;51.80
64718;DHT22;51148;46.070;14.492;2022-07-10T00:12:40;24.90;51.80
64718;DHT22;51148;46.070;14.492;2022-07-10T00:15:05;24.80;51.90
64718;DHT22;51148;46.070;14.492;2022-07-10T00:17:32;24.90;52.00
64718;DHT22;51148;46.070;14.492;2022-07-10T00:19:57;24.80;52.00
64718;DHT22;51148;46.070;14.492;2022-07-10T00:22:23;24.80;52.10
64718;DHT22;51148;46.070;14.492;2022-07-10T00:24:48;24.80;52.10
64718;DHT22;51148;46.070;14.492;2022-07-10T00:27:16;24.80;52.00
64718;DHT22;51148;46.070;14.492;2022-07-10T00:29:41;24.80;52.10
64718;DHT22;51148;46.070;14.492;2022-07-10T00:32:07;24.80;52.10
64718;DHT22;51148;46.070;14.492;2022-07-10T00:34:32;24.80;52.10
64718;DHT22;51148;46.070;14.492;2022-07-10T00:36:58;24.80;52.20
64718;DHT22;51148;46.070;14.492;2022-07-10T00:39:24;24.80;52.10
64718;DHT22;51148;46.070;14.492;2022-07-10T00:41:49;24.80;52.10
64718;DHT22;51148;46.070;14.492;2022-07-10T00:44:15;24.80;52.10
64718;DHT22;51148;46.070;14.492;2022-07-10T00:46:40;24.80;52.20
64718;DHT22;51148;46.070;14.492;2022-07-10T00:49:06;24.70;52.30
64718;DHT22;51148;46.070;14.492;2022-07-10T00:51:31;24.70;52.20
64718;DHT22;51148;46.070;14.492;2022-07-10T00:53:59;24.70;52.20
64718;DHT22;51148;46.070;14.492;2022-07-10T00:56:26;24.70;52.20
64718;DHT22;51148;46.070;14.492;2022-07-10T00:58:51;24.70;52.30
64718;DHT22;51148;46.070;14.492;2022-07-10T01:01:17;24.70;52.20
64718;DHT22;51148;46.070;14.492;2022-07-10T01:03:43;24.70;52.20
64718;DHT22;51148;46.070;14.492;2022-07-10T01:06:15;24.70;52.30
64718;DHT22;51148;46.070;14.492;2022-07-10T01:08:41;24.80;52.20
64718;DHT22;51148;46.070;14.492;2022-07-10T01:11:07;24.70;52.20
64718;DHT22;51148;46.070;14.492;2022-07-10T01:13:33;24.70;52.20
64718;DHT22;51148;46.070;14.492;2022-07-10T01:15:58;24.80;52.20
64718;DHT22;51148;46.070;14.492;2022-07-10T01:18:27;24.80;52.20
64718;DHT22;51148;46.070;14.492;2022-07-10T01:20:53;24.80;52.20
64718;DHT22;51148;46.070;14.492;2022-07-10T01:23:19;24.80;52.20
64718;DHT22;51148;46.070;14.492;2022-07-10T01:25:45;24.80;52.20
64718;DHT22;51148;46.070;14.492;2022-07-10T01:28:10;24.80;52.20
64718;DHT22;51148;46.070;14.492;2022-07-10T01:30:36;24.80;52.20
64718;DHT22;51148;46.070;14.492;2022-07-10T01:33:02;24.80;52.30
64718;DHT22;51148;46.070;14.492;2022-07-10T01:35:27;24.80;52.30
64718;DHT22;51148;46.070;14.492;2022-07-10T01:37:53;24.80;52.30
64718;DHT22;51148;46.070;14.492;2022-07-10T01:40:18;24.80;52.30
64718;DHT22;51148;46.070;14.492;2022-07-10T01:42:44;24.80;52.30
64718;DHT22;51148;46.070;14.492;2022-07-10T01:45:10;24.80;52.30
64718;DHT22;51148;46.070;14.492;2022-07-10T01:47:36;24.80;52.30
64718;DHT22;51148;46.070;14.492;2022-07-10T01:50:02;24.80;52.30
64718;DHT22;51148;46.070;14.492;2022-07-10T01:52:27;24.80;52.40
64718;DHT22;51148;46.070;14.492;2022-07-10T01:54:53;24.80;52.30
64718;DHT22;51148;46.070;14.492;2022-07-10T01:57:18;24.80;52.30
64718;DHT22;51148;46.070;14.492;2022-07-10T01:59:44;24.80;52.30
64718;DHT22;51148;46.070;14.492;2022-07-10T02:02:09;24.80;52.30
64718;DHT22;51148;46.070;14.492;2022-07-10T02:04:35;24.80;52.50
64718;DHT22;51148;46.070;14.492;2022-07-10T02:07:10;24.80;52.50
64718;DHT22;51148;46.070;14.492;2022-07-10T02:09:36;24.80;52.50
64718;DHT22;51148;46.070;14.492;2022-07-10T02:12:02;24.80;52.50
64718;DHT22;51148;46.070;14.492;2022-07-10T02:14:27;24.80;52.40
64718;DHT22;51148;46.070;14.492;2022-07-10T02:16:53;24.80;52.50
64718;DHT22;51148;46.070;14.492;2022-07-10T02:19:18;24.80;52.40
64718;DHT22;51148;46.070;14.492;2022-07-10T02:21:44;24.70;52.40
64718;DHT22;51148;46.070;14.492;2022-07-10T02:24:11;24.80;52.40
64718;DHT22;51148;46.070;14.492;2022-07-10T02:26:36;24.80;52.40
64718;DHT22;51148;46.070;14.492;2022-07-10T02:29:02;24.70;52.30
64718;DHT22;51148;46.070;14.492;2022-07-10T02:31:27;24.70;52.30
64718;DHT22;51148;46.070;14.492;2022-07-10T02:33:53;24.70;52.30
64718;DHT22;51148;46.070;14.492;2022-07-10T02:36:18;24.70;52.30
64718;DHT22;51148;46.070;14.492;2022-07-10T02:38:44;24.80;52.50
64718;DHT22;51148;46.070;14.492;2022-07-10T02:41:09;24.70;52.60
64718;DHT22;51148;46.070;14.492;2022-07-10T02:43:35;24.70;52.70
64718;DHT22;51148;46.070;14.492;2022-07-10T02:46:00;24.70;52.70
64718;DHT22;51148;46.070;14.492;2022-07-10T02:48:27;24.70;52.80
64718;DHT22;51148;46.070;14.492;2022-07-10T02:50:52;24.70;52.80
64718;DHT22;51148;46.070;14.492;2022-07-10T02:53:18;24.70;52.80
64718;DHT22;51148;46.070;14.492;2022-07-10T02:55:44;24.70;52.70
64718;DHT22;51148;46.070;14.492;2022-07-10T02:58:10;24.70;52.60
64718;DHT22;51148;46.070;14.492;2022-07-10T03:00:36;24.70;52.50
64718;DHT22;51148;46.070;14.492;2022-07-10T03:03:01;24.70;52.50
64718;DHT22;51148;46.070;14.492;2022-07-10T03:05:27;24.70;52.50
64718;DHT22;51148;46.070;14.492;2022-07-10T03:07:52;24.70;52.50
64718;DHT22;51148;46.070;14.492;2022-07-10T03:10:18;24.70;52.50
64718;DHT22;51148;46.070;14.492;2022-07-10T03:12:44;24.70;52.40
64718;DHT22;51148;46.070;14.492;2022-07-10T03:15:09;24.70;52.40
64718;DHT22;51148;46.070;14.492;2022-07-10T03:17:35;24.70;52.30
64718;DHT22;51148;46.070;14.492;2022-07-10T03:20:00;24.70;52.30
64718;DHT22;51148;46.070;14.492;2022-07-10T03:22:26;24.70;52.30
64718;DHT22;51148;46.070;14.492;2022-07-10T03:24:53;24.70;52.30
64718;DHT22;51148;46.070;14.492;2022-07-10T03:27:19;24.70;52.40
64718;DHT22;51148;46.070;14.492;2022-07-10T03:29:44;24.70;52.40
64718;DHT22;51148;46.070;14.492;2022-07-10T03:32:11;24.70;52.50
64718;DHT22;51148;46.070;14.492;2022-07-10T03:34:37;24.70;52.60
64718;DHT22;51148;46.070;14.492;2022-07-10T03:37:02;24.70;52.70
64718;DHT22;51148;46.070;14.492;2022-07-10T03:39:28;24.60;52.70
64718;DHT22;51148;46.070;14.492;2022-07-10T03:41:53;24.60;52.80
64718;DHT22;51148;46.070;14.492;2022-07-10T03:44:19;24.60;52.80
64718;DHT22;51148;46.070;14.492;2022-07-10T03:46:45;24.60;53.00
64718;DHT22;51148;46.070;14.492;2022-07-10T03:49:11;24.60;52.90
64718;DHT22;51148;46.070;14.492;2022-07-10T03:51:36;24.60;52.90
64718;DHT22;51148;46.070;14.492;2022-07-10T03:54:02;24.60;52.90
64718;DHT22;51148;46.070;14.492;2022-07-10T03:56:27;24.60;52.90
64718;DHT22;51148;46.070;14.492;2022-07-10T03:59:11;24.60;53.10
64718;DHT22;51148;46.070;14.492;2022-07-10T04:01:37;24.60;53.00
64718;DHT22;51148;46.070;14.492;2022-07-10T04:04:02;24.60;52.90
64718;DHT22;51148;46.070;14.492;2022-07-10T04:06:28;24.70;53.00
64718;DHT22;51148;46.070;14.492;2022-07-10T04:08:53;24.70;53.00
64718;DHT22;51148;46.070;14.492;2022-07-10T04:11:19;24.70;53.10
64718;DHT22;51148;46.070;14.492;2022-07-10T04:13:44;24.70;52.90
64718;DHT22;51148;46.070;14.492;2022-07-10T04:16:10;24.70;52.90
64718;DHT22;51148;46.070;14.492;2022-07-10T04:18:41;24.70;52.90
64718;DHT22;51148;46.070;14.492;2022-07-10T04:21:07;24.70;52.90
64718;DHT22;51148;46.070;14.492;2022-07-10T04:23:32;24.70;52.80
64718;DHT22;51148;46.070;14.492;2022-07-10T04:25:58;24.70;52.90
64718;DHT22;51148;46.070;14.492;2022-07-10T04:28:24;24.70;52.90
64718;DHT22;51148;46.070;14.492;2022-07-10T04:30:49;24.70;52.90
64718;DHT22;51148;46.070;14.492;2022-07-10T04:33:15;24.70;53.10
64718;DHT22;51148;46.070;14.492;2022-07-10T04:35:40;24.70;52.90
64718;DHT22;51148;46.070;14.492;2022-07-10T04:38:06;24.70;52.90
64718;DHT22;51148;46.070;14.492;2022-07-10T04:40:31;24.70;52.80
64718;DHT22;51148;46.070;14.492;2022-07-10T04:42:57;24.70;52.80
64718;DHT22;51148;46.070;14.492;2022-07-10T04:45:22;24.70;52.80
64718;DHT22;51148;46.070;14.492;2022-07-10T04:47:48;24.70;52.70
64718;DHT22;51148;46.070;14.492;2022-07-10T04:50:13;24.70;52.80
64718;DHT22;51148;46.070;14.492;2022-07-10T04:52:39;24.70;52.70
64718;DHT22;51148;46.070;14.492;2022-07-10T04:55:05;24.70;52.80
64718;DHT22;51148;46.070;14.492;2022-07-10T04:57:30;24.70;53.00
64718;DHT22;51148;46.070;14.492;2022-07-10T04:59:56;24.70;52.90
64718;DHT22;51148;46.070;14.492;2022-07-10T05:02:22;24.70;52.80
64718;DHT22;51148;46.070;14.492;2022-07-10T05:04:47;24.70;52.90
64718;DHT22;51148;46.070;14.492;2022-07-10T05:07:13;24.70;53.10
64718;DHT22;51148;46.070;14.492;2022-07-10T05:09:39;24.70;52.90
64718;DHT22;51148;46.070;14.492;2022-07-10T05:12:05;24.70;53.00
64718;DHT22;51148;46.070;14.492;2022-07-10T05:14:31;24.70;52.80
64718;DHT22;51148;46.070;14.492;2022-07-10T05:16:57;24.50;51.40
64718;DHT22;51148;46.070;14.492;2022-07-10T05:19:22;24.20;51.20
64718;DHT22;51148;46.070;14.492;2022-07-10T05:21:48;24.00;51.50
64718;DHT22;51148;46.070;14.492;2022-07-10T05:24:13;24.00;51.60
64718;DHT22;51148;46.070;14.492;2022-07-10T05:26:39;23.90;51.50
64718;DHT22;51148;46.070;14.492;2022-07-10T05:29:04;23.80;51.50
64718;DHT22;51148;46.070;14.492;2022-07-10T05:31:30;23.70;52.00
64718;DHT22;51148;46.070;14.492;2022-07-10T05:33:56;23.70;52.50
64718;DHT22;51148;46.070;14.492;2022-07-10T05:36:21;23.60;52.80
64718;DHT22;51148;46.070;14.492;2022-07-10T05:38:47;23.50;53.00
64718;DHT22;51148;46.070;14.492;2022-07-10T05:41:12;23.50;53.40
64718;DHT22;51148;46.070;14.492;2022-07-10T05:43:38;23.30;53.90
64718;DHT22;51148;46.070;14.492;2022-07-10T05:46:03;23.30;53.90
64718;DHT22;51148;46.070;14.492;2022-07-10T05:48:29;23.30;53.80
64718;DHT22;51148;46.070;14.492;2022-07-10T05:50:55;23.10;54.00
64718;DHT22;51148;46.070;14.492;2022-07-10T05:53:20;22.90;54.40
64718;DHT22;51148;46.070;14.492;2022-07-10T05:55:47;22.80;55.00
64718;DHT22;51148;46.070;14.492;2022-07-10T05:58:13;22.90;55.00
64718;DHT22;51148;46.070;14.492;2022-07-10T06:00:39;23.10;54.30
64718;DHT22;51148;46.070;14.492;2022-07-10T06:03:05;23.10;54.40
64718;DHT22;51148;46.070;14.492;2022-07-10T06:05:30;22.90;54.80
64718;DHT22;51148;46.070;14.492;2022-07-10T06:07:56;22.80;55.30
64718;DHT22;51148;46.070;14.492;2022-07-10T06:10:22;22.70;55.60
64718;DHT22;51148;46.070;14.492;2022-07-10T06:12:47;22.60;55.60
64718;DHT22;51148;46.070;14.492;2022-07-10T06:15:13;22.50;55.70
64718;DHT22;51148;46.070;14.492;2022-07-10T06:17:38;22.50;55.80
64718;DHT22;51148;46.070;14.492;2022-07-10T06:20:04;22.50;55.80
64718;DHT22;51148;46.070;14.492;2022-07-10T06:22:29;22.50;55.60
64718;DHT22;51148;46.070;14.492;2022-07-10T06:24:55;22.50;55.70
64718;DHT22;51148;46.070;14.492;2022-07-10T06:27:21;22.40;55.50
64718;DHT22;51148;46.070;14.492;2022-07-10T06:29:46;22.40;55.90
64718;DHT22;51148;46.070;14.492;2022-07-10T06:32:12;22.40;55.40
64718;DHT22;51148;46.070;14.492;2022-07-10T06:34:37;22.40;55.10
64718;DHT22;51148;46.070;14.492;2022-07-10T06:37:03;22.40;55.20
64718;DHT22;51148;46.070;14.492;2022-07-10T06:39:31;22.60;54.80
64718;DHT22;51148;46.070;14.492;2022-07-10T06:41:59;22.80;54.10
64718;DHT22;51148;46.070;14.492;2022-07-10T06:44:25;22.90;53.20
64718;DHT22;51148;46.070;14.492;2022-07-10T06:46:51;23.00;53.00
64718;DHT22;51148;46.070;14.492;2022-07-10T06:49:35;23.00;53.20
64718;DHT22;51148;46.070;14.492;2022-07-10T06:52:00;23.10;53.40
64718;DHT22;51148;46.070;14.492;2022-07-10T06:54:26;23.10;52.90
64718;DHT22;51148;46.070;14.492;2022-07-10T06:56:52;23.10;52.50
64718;DHT22;51148;46.070;14.492;2022-07-10T06:59:17;23.10;52.30
64718;DHT22;51148;46.070;14.492;2022-07-10T07:01:43;23.10;52.50
64718;DHT22;51148;46.070;14.492;2022-07-10T07:04:09;23.10;52.60
64718;DHT22;51148;46.070;14.492;2022-07-10T07:06:34;23.10;52.70
64718;DHT22;51148;46.070;14.492;2022-07-10T07:09:00;23.20;52.80
64718;DHT22;51148;46.070;14.492;2022-07-10T07:11:26;23.30;52.50
64718;DHT22;51148;46.070;14.492;2022-07-10T07:13:51;23.20;52.10
64718;DHT22;51148;46.070;14.492;2022-07-10T07:16:17;23.10;52.30
64718;DHT22;51148;46.070;14.492;2022-07-10T07:18:45;23.10;52.30
64718;DHT22;51148;46.070;14.492;2022-07-10T07:21:17;23.00;52.40
64718;DHT22;51148;46.070;14.492;2022-07-10T07:24:01;23.10;51.80
64718;DHT22;51148;46.070;14.492;2022-07-10T07:26:29;23.00;51.70
64718;DHT22;51148;46.070;14.492;2022-07-10T07:28:54;23.00;52.70
64718;DHT22;51148;46.070;14.492;2022-07-10T07:31:20;23.00;52.30
64718;DHT22;51148;46.070;14.492;2022-07-10T07:33:45;23.00;52.50
64718;DHT22;51148;46.070;14.492;2022-07-10T07:36:11;23.00;52.30
64718;DHT22;51148;46.070;14.492;2022-07-10T07:38:36;22.90;52.10
64718;DHT22;51148;46.070;14.492;2022-07-10T07:41:02;22.90;52.00
64718;DHT22;51148;46.070;14.492;2022-07-10T07:43:27;22.90;52.30
64718;DHT22;51148;46.070;14.492;2022-07-10T07:45:53;22.90;52.50
64718;DHT22;51148;46.070;14.492;2022-07-10T07:48:18;22.90;53.00
64718;DHT22;51148;46.070;14.492;2022-07-10T07:50:44;22.90;53.50
64718;DHT22;51148;46.070;14.492;2022-07-10T07:53:09;22.90;53.50
64718;DHT22;51148;46.070;14.492;2022-07-10T07:55:35;22.90;53.60
64718;DHT22;51148;46.070;14.492;2022-07-10T07:58:01;22.90;53.60
64718;DHT22;51148;46.070;14.492;2022-07-10T08:00:28;22.90;53.20
64718;DHT22;51148;46.070;14.492;2022-07-10T08:02:54;22.90;52.60
64718;DHT22;51148;46.070;14.492;2022-07-10T08:05:20;23.00;52.60
64718;DHT22;51148;46.070;14.492;2022-07-10T08:07:47;22.90;52.50
64718;DHT22;51148;46.070;14.492;2022-07-10T08:10:13;22.90;52.70
64718;DHT22;51148;46.070;14.492;2022-07-10T08:12:39;22.90;52.80
64718;DHT22;51148;46.070;14.492;2022-07-10T08:15:07;23.00;52.50
64718;DHT22;51148;46.070;14.492;2022-07-10T08:17:32;23.00;52.50
64718;DHT22;51148;46.070;14.492;2022-07-10T08:19:58;23.00;52.10
64718;DHT22;51148;46.070;14.492;2022-07-10T08:22:23;23.10;52.60
64718;DHT22;51148;46.070;14.492;2022-07-10T08:24:49;23.20;52.40
64718;DHT22;51148;46.070;14.492;2022-07-10T08:27:14;23.30;52.10
64718;DHT22;51148;46.070;14.492;2022-07-10T08:29:41;23.40;51.90
64718;DHT22;51148;46.070;14.492;2022-07-10T08:32:06;23.50;51.80
64718;DHT22;51148;46.070;14.492;2022-07-10T08:34:32;23.60;51.80
64718;DHT22;51148;46.070;14.492;2022-07-10T08:36:58;23.70;51.80
64718;DHT22;51148;46.070;14.492;2022-07-10T08:39:24;23.70;51.80
64718;DHT22;51148;46.070;14.492;2022-07-10T08:41:50;23.80;52.00
64718;DHT22;51148;46.070;14.492;2022-07-10T08:44:16;23.90;52.00
64718;DHT22;51148;46.070;14.492;2022-07-10T08:46:41;23.90;52.00
64718;DHT22;51148;46.070;14.492;2022-07-10T08:49:08;24.00;52.20
64718;DHT22;51148;46.070;14.492;2022-07-10T08:54:07;24.00;52.30
64718;DHT22;51148;46.070;14.492;2022-07-10T08:56:33;24.00;52.40
64718;DHT22;51148;46.070;14.492;2022-07-10T08:58:58;24.00;52.50
64718;DHT22;51148;46.070;14.492;2022-07-10T09:01:24;24.00;52.60
64718;DHT22;51148;46.070;14.492;2022-07-10T09:03:50;24.00;52.70
64718;DHT22;51148;46.070;14.492;2022-07-10T09:06:16;24.10;52.60
64718;DHT22;51148;46.070;14.492;2022-07-10T09:11:26;24.10;52.90
64718;DHT22;51148;46.070;14.492;2022-07-10T09:13:58;24.10;52.80
64718;DHT22;51148;46.070;14.492;2022-07-10T09:16:24;24.10;52.90
64718;DHT22;51148;46.070;14.492;2022-07-10T09:18:50;24.10;53.10
64718;DHT22;51148;46.070;14.492;2022-07-10T09:21:16;24.10;53.10
64718;DHT22;51148;46.070;14.492;2022-07-10T09:23:41;24.10;53.20
64718;DHT22;51148;46.070;14.492;2022-07-10T09:26:07;24.10;53.20
64718;DHT22;51148;46.070;14.492;2022-07-10T09:28:32;24.10;53.30
64718;DHT22;51148;46.070;14.492;2022-07-10T09:30:58;24.20;53.30
64718;DHT22;51148;46.070;14.492;2022-07-10T09:33:24;24.20;53.00
64718;DHT22;51148;46.070;14.492;2022-07-10T09:41:17;24.30;53.10
64718;DHT22;51148;46.070;14.492;2022-07-10T09:43:46;24.30;53.10
64718;DHT22;51148;46.070;14.492;2022-07-10T09:46:12;24.30;53.20
64718;DHT22;51148;46.070;14.492;2022-07-10T09:48:38;24.30;53.30
64718;DHT22;51148;46.070;14.492;2022-07-10T09:51:05;24.40;53.40
64718;DHT22;51148;46.070;14.492;2022-07-10T09:53:32;24.40;53.40
64718;DHT22;51148;46.070;14.492;2022-07-10T09:55:57;24.40;53.50
64718;DHT22;51148;46.070;14.492;2022-07-10T09:58:25;24.40;53.40
64718;DHT22;51148;46.070;14.492;2022-07-10T10:00:52;24.40;53.40
64718;DHT22;51148;46.070;14.492;2022-07-10T10:03:19;24.50;53.50
64718;DHT22;51148;46.070;14.492;2022-07-10T10:05:46;24.40;55.40
64718;DHT22;51148;46.070;14.492;2022-07-10T10:08:17;24.20;56.40
64718;DHT22;51148;46.070;14.492;2022-07-10T10:10:45;24.10;55.20
64718;DHT22;51148;46.070;14.492;2022-07-10T10:13:11;23.90;55.50
64718;DHT22;51148;46.070;14.492;2022-07-10T10:15:40;23.80;55.50
64718;DHT22;51148;46.070;14.492;2022-07-10T10:18:07;23.70;56.10
64718;DHT22;51148;46.070;14.492;2022-07-10T10:20:34;23.70;56.40
64718;DHT22;51148;46.070;14.492;2022-07-10T10:23:03;23.70;56.60
64718;DHT22;51148;46.070;14.492;2022-07-10T10:25:28;23.90;56.50
64718;DHT22;51148;46.070;14.492;2022-07-10T10:27:57;24.00;55.90
64718;DHT22;51148;46.070;14.492;2022-07-10T10:30:23;24.20;55.30
64718;DHT22;51148;46.070;14.492;2022-07-10T10:32:48;24.30;55.20
64718;DHT22;51148;46.070;14.492;2022-07-10T10:37:58;24.40;54.90
64718;DHT22;51148;46.070;14.492;2022-07-10T10:40:31;24.40;54.60
64718;DHT22;51148;46.070;14.492;2022-07-10T10:42:58;24.30;54.50
64718;DHT22;51148;46.070;14.492;2022-07-10T10:45:24;24.30;54.30
64718;DHT22;51148;46.070;14.492;2022-07-10T10:48:06;24.20;54.90
64718;DHT22;51148;46.070;14.492;2022-07-10T10:50:37;24.20;54.50
64718;DHT22;51148;46.070;14.492;2022-07-10T10:53:21;24.10;54.50
64718;DHT22;51148;46.070;14.492;2022-07-10T10:58:35;24.10;54.90
64718;DHT22;51148;46.070;14.492;2022-07-10T11:01:04;24.20;55.10
64718;DHT22;51148;46.070;14.492;2022-07-10T11:03:30;24.20;55.40
64718;DHT22;51148;46.070;14.492;2022-07-10T11:05:56;24.10;54.90
64718;DHT22;51148;46.070;14.492;2022-07-10T11:08:34;23.90;54.90
64718;DHT22;51148;46.070;14.492;2022-07-10T11:11:00;23.90;54.90
64718;DHT22;51148;46.070;14.492;2022-07-10T11:13:26;23.90;54.00
64718;DHT22;51148;46.070;14.492;2022-07-10T11:15:52;23.80;54.20
64718;DHT22;51148;46.070;14.492;2022-07-10T11:18:18;23.90;54.10
64718;DHT22;51148;46.070;14.492;2022-07-10T11:20:45;23.80;53.30
64718;DHT22;51148;46.070;14.492;2022-07-10T11:28:25;23.80;54.90
64718;DHT22;51148;46.070;14.492;2022-07-10T11:30:54;23.80;54.40
64718;DHT22;51148;46.070;14.492;2022-07-10T11:33:20;23.80;53.80
64718;DHT22;51148;46.070;14.492;2022-07-10T11:35:46;23.80;53.70
64718;DHT22;51148;46.070;14.492;2022-07-10T11:38:12;23.80;53.40
64718;DHT22;51148;46.070;14.492;2022-07-10T11:40:38;23.70;53.00
64718;DHT22;51148;46.070;14.492;2022-07-10T11:43:03;23.70;53.10
64718;DHT22;51148;46.070;14.492;2022-07-10T11:45:35;23.70;53.30
64718;DHT22;51148;46.070;14.492;2022-07-10T11:48:03;23.70;53.40
64718;DHT22;51148;46.070;14.492;2022-07-10T11:50:34;23.70;53.10
64718;DHT22;51148;46.070;14.492;2022-07-10T11:53:00;23.70;53.20
64718;DHT22;51148;46.070;14.492;2022-07-10T11:55:26;23.80;53.50
64718;DHT22;51148;46.070;14.492;2022-07-10T11:57:52;23.80;53.80
64718;DHT22;51148;46.070;14.492;2022-07-10T12:02:46;23.80;53.70
64718;DHT22;51148;46.070;14.492;2022-07-10T12:07:55;23.80;53.20
64718;DHT22;51148;46.070;14.492;2022-07-10T12:10:24;23.80;53.40
64718;DHT22;51148;46.070;14.492;2022-07-10T12:12:50;23.90;53.50
64718;DHT22;51148;46.070;14.492;2022-07-10T12:18:18;23.90;53.40
64718;DHT22;51148;46.070;14.492;2022-07-10T12:20:44;24.00;53.40
64718;DHT22;51148;46.070;14.492;2022-07-10T12:23:16;24.00;53.30
64718;DHT22;51148;46.070;14.492;2022-07-10T12:25:42;24.10;54.40
64718;DHT22;51148;46.070;14.492;2022-07-10T12:28:08;24.10;54.20
64718;DHT22;51148;46.070;14.492;2022-07-10T12:30:37;24.10;52.60
64718;DHT22;51148;46.070;14.492;2022-07-10T12:33:13;24.10;51.70
64718;DHT22;51148;46.070;14.492;2022-07-10T12:38:24;24.20;51.40
64718;DHT22;51148;46.070;14.492;2022-07-10T12:40:50;24.20;51.20
64718;DHT22;51148;46.070;14.492;2022-07-10T12:43:26;24.20;51.30
64718;DHT22;51148;46.070;14.492;2022-07-10T12:46:08;24.30;51.30
64718;DHT22;51148;46.070;14.492;2022-07-10T12:48:34;24.30;51.90
64718;DHT22;51148;46.070;14.492;2022-07-10T12:51:18;24.30;52.90
64718;DHT22;51148;46.070;14.492;2022-07-10T12:53:44;24.30;52.60
64718;DHT22;51148;46.070;14.492;2022-07-10T12:56:10;24.40;52.50
64718;DHT22;51148;46.070;14.492;2022-07-10T12:58:35;24.40;51.20
64718;DHT22;51148;46.070;14.492;2022-07-10T13:01:01;24.40;51.70
64718;DHT22;51148;46.070;14.492;2022-07-10T13:03:27;24.40;52.40
64718;DHT22;51148;46.070;14.492;2022-07-10T13:05:55;24.40;52.30
64718;DHT22;51148;46.070;14.492;2022-07-10T13:08:22;24.40;51.90
64718;DHT22;51148;46.070;14.492;2022-07-10T13:10:52;24.40;51.40
64718;DHT22;51148;46.070;14.492;2022-07-10T13:13:18;24.40;50.60
64718;DHT22;51148;46.070;14.492;2022-07-10T13:15:44;24.50;50.10
64718;DHT22;51148;46.070;14.492;2022-07-10T13:18:17;24.50;49.80
64718;DHT22;51148;46.070;14.492;2022-07-10T13:20:46;24.50;50.40
64718;DHT22;51148;46.070;14.492;2022-07-10T13:23:12;24.50;51.90
64718;DHT22;51148;46.070;14.492;2022-07-10T13:25:37;24.50;51.70
64718;DHT22;51148;46.070;14.492;2022-07-10T13:28:05;24.50;52.50
64718;DHT22;51148;46.070;14.492;2022-07-10T13:30:30;24.50;51.50
64718;DHT22;51148;46.070;14.492;2022-07-10T13:32:56;24.50;52.00
64718;DHT22;51148;46.070;14.492;2022-07-10T13:35:22;24.60;51.60
64718;DHT22;51148;46.070;14.492;2022-07-10T13:37:48;24.70;51.60
64718;DHT22;51148;46.070;14.492;2022-07-10T13:40:14;24.70;52.60
64718;DHT22;51148;46.070;14.492;2022-07-10T13:42:39;24.70;52.90
64718;DHT22;51148;46.070;14.492;2022-07-10T13:45:05;24.70;53.20
64718;DHT22;51148;46.070;14.492;2022-07-10T13:47:31;24.70;53.50
64718;DHT22;51148;46.070;14.492;2022-07-10T13:49:56;24.80;55.30
64718;DHT22;51148;46.070;14.492;2022-07-10T13:52:22;24.80;53.90
64718;DHT22;51148;46.070;14.492;2022-07-10T13:54:47;24.80;53.80
64718;DHT22;51148;46.070;14.492;2022-07-10T13:57:13;24.80;53.10
64718;DHT22;51148;46.070;14.492;2022-07-10T13:59:38;24.80;51.40
64718;DHT22;51148;46.070;14.492;2022-07-10T14:02:04;24.80;50.90
64718;DHT22;51148;46.070;14.492;2022-07-10T14:04:29;24.80;52.30
64718;DHT22;51148;46.070;14.492;2022-07-10T14:06:55;24.90;50.80
64718;DHT22;51148;46.070;14.492;2022-07-10T14:09:20;24.90;49.40
64718;DHT22;51148;46.070;14.492;2022-07-10T14:11:49;24.90;48.50
64718;DHT22;51148;46.070;14.492;2022-07-10T14:14:14;24.90;50.00
64718;DHT22;51148;46.070;14.492;2022-07-10T14:16:40;24.80;50.10
64718;DHT22;51148;46.070;14.492;2022-07-10T14:19:07;24.80;47.80
64718;DHT22;51148;46.070;14.492;2022-07-10T14:21:33;24.80;47.70
64718;DHT22;51148;46.070;14.492;2022-07-10T14:23:58;24.80;47.10
64718;DHT22;51148;46.070;14.492;2022-07-10T14:26:24;24.80;47.80
64718;DHT22;51148;46.070;14.492;2022-07-10T14:28:49;24.80;46.40
64718;DHT22;51148;46.070;14.492;2022-07-10T14:31:16;24.70;46.80
64718;DHT22;51148;46.070;14.492;2022-07-10T14:33:43;24.70;46.50
64718;DHT22;51148;46.070;14.492;2022-07-10T14:36:08;24.70;46.80
64718;DHT22;51148;46.070;14.492;2022-07-10T14:38:34;24.70;48.30
64718;DHT22;51148;46.070;14.492;2022-07-10T14:40:59;24.70;48.40
64718;DHT22;51148;46.070;14.492;2022-07-10T14:43:25;24.60;49.40
64718;DHT22;51148;46.070;14.492;2022-07-10T14:45:51;24.60;49.70
64718;DHT22;51148;46.070;14.492;2022-07-10T14:48:17;24.70;50.10
64718;DHT22;51148;46.070;14.492;2022-07-10T14:50:42;24.70;50.70
64718;DHT22;51148;46.070;14.492;2022-07-10T14:53:08;24.60;51.50
64718;DHT22;51148;46.070;14.492;2022-07-10T14:55:34;24.60;52.20
64718;DHT22;51148;46.070;14.492;2022-07-10T14:58:00;24.60;52.30
64718;DHT22;51148;46.070;14.492;2022-07-10T15:00:26;24.70;52.90
64718;DHT22;51148;46.070;14.492;2022-07-10T15:02:51;24.70;53.30
64718;DHT22;51148;46.070;14.492;2022-07-10T15:05:17;24.70;53.70
64718;DHT22;51148;46.070;14.492;2022-07-10T15:07:42;24.70;54.00
64718;DHT22;51148;46.070;14.492;2022-07-10T15:10:08;24.60;54.20
64718;DHT22;51148;46.070;14.492;2022-07-10T15:12:34;24.70;54.70
64718;DHT22;51148;46.070;14.492;2022-07-10T15:15:02;24.70;54.60
64718;DHT22;51148;46.070;14.492;2022-07-10T15:17:28;24.70;54.90
64718;DHT22;51148;46.070;14.492;2022-07-10T15:19:53;24.60;55.20
64718;DHT22;51148;46.070;14.492;2022-07-10T15:22:19;24.60;55.40
64718;DHT22;51148;46.070;14.492;2022-07-10T15:24:46;24.60;55.60
64718;DHT22;51148;46.070;14.492;2022-07-10T15:27:14;24.60;55.70
64718;DHT22;51148;46.070;14.492;2022-07-10T15:29:39;24.60;56.00
64718;DHT22;51148;46.070;14.492;2022-07-10T15:32:05;24.60;56.10
64718;DHT22;51148;46.070;14.492;2022-07-10T15:34:31;24.50;56.30
64718;DHT22;51148;46.070;14.492;2022-07-10T15:36:56;24.50;56.50
64718;DHT22;51148;46.070;14.492;2022-07-10T15:39:22;24.50;56.70
64718;DHT22;51148;46.070;14.492;2022-07-10T15:41:49;24.50;56.90